createdAt,value
2018-12-14T00:02:18.799Z,35.53
2018-12-14T00:04:52.705Z,34.57
2018-12-14T00:07:26.727Z,32.33
2018-12-14T00:10:00.724Z,32.00
2018-12-14T00:12:34.733Z,36.07
2018-12-14T00:15:08.545Z,34.77
2018-12-14T00:17:42.424Z,34.03
2018-12-14T00:20:16.132Z,34.80
2018-12-14T00:22:50.040Z,35.83
2018-12-14T00:25:23.860Z,35.93
2018-12-14T00:27:57.768Z,33.10
2018-12-14T00:30:31.573Z,35.13
2018-12-14T00:33:05.890Z,37.80
2018-12-14T00:35:41.130Z,35.70
2018-12-14T00:38:15.060Z,34.33
2018-12-14T00:40:48.950Z,33.67
2018-12-14T00:43:23.056Z,33.87
2018-12-14T00:45:56.938Z,33.30
2018-12-14T00:48:31.279Z,31.23
2018-12-14T00:51:05.125Z,32.37
2018-12-14T00:53:39.194Z,32.37
2018-12-14T00:56:13.203Z,33.33
2018-12-14T00:58:47.177Z,31.60
2018-12-14T01:01:21.194Z,32.67
2018-12-14T01:03:55.568Z,33.73
2018-12-14T01:06:29.652Z,29.27
2018-12-14T01:09:05.504Z,32.90
2018-12-14T01:11:39.391Z,31.17
2018-12-14T01:14:14.138Z,35.33
2018-12-14T01:16:49.446Z,33.30
2018-12-14T01:19:24.513Z,32.37
2018-12-14T01:21:58.419Z,31.20
2018-12-14T01:24:32.327Z,31.60
2018-12-14T01:27:06.389Z,31.97
2018-12-14T01:29:40.372Z,29.30
2018-12-14T01:32:15.481Z,31.20
2018-12-14T01:34:49.403Z,31.97
2018-12-14T01:37:23.500Z,32.50
2018-12-14T01:39:57.510Z,32.37
2018-12-14T01:42:31.826Z,33.30
2018-12-14T01:45:06.566Z,29.60
2018-12-14T01:47:41.095Z,30.33
2018-12-14T01:50:14.981Z,33.80
2018-12-14T01:52:48.888Z,31.90
2018-12-14T01:55:22.796Z,36.27
2018-12-14T01:57:56.649Z,34.60
2018-12-14T02:00:30.565Z,33.17
2018-12-14T02:03:04.723Z,33.00
2018-12-14T02:05:38.529Z,32.03
2018-12-14T02:08:12.235Z,31.63
2018-12-14T02:10:46.239Z,31.27
2018-12-14T02:13:20.249Z,31.03
2018-12-14T02:15:54.874Z,30.37
2018-12-14T02:18:28.900Z,31.80
2018-12-14T02:21:02.730Z,32.77
2018-12-14T02:23:36.798Z,32.27
2018-12-14T02:26:10.762Z,34.90
2018-12-14T02:28:44.921Z,32.33
2018-12-14T02:31:18.733Z,32.40
2018-12-14T02:33:52.837Z,30.60
2018-12-14T02:36:26.744Z,30.77
2018-12-14T02:39:00.653Z,33.33
2018-12-14T02:41:34.558Z,31.77
2018-12-14T02:44:08.468Z,34.90
2018-12-14T02:46:42.372Z,33.47
2018-12-14T02:49:16.214Z,31.10
2018-12-14T02:51:50.376Z,28.00
2018-12-14T02:54:24.281Z,25.63
2018-12-14T02:56:58.513Z,24.27
2018-12-14T02:59:32.524Z,23.83
2018-12-14T03:02:06.533Z,25.73
2018-12-14T03:04:40.542Z,23.33
2018-12-14T03:07:14.553Z,23.03
2018-12-14T03:09:48.327Z,21.93
2018-12-14T03:12:26.636Z,21.43
2018-12-14T03:14:58.424Z,19.63
2018-12-14T03:17:32.435Z,18.37
2018-12-14T03:20:07.788Z,18.40
2018-12-14T03:22:41.784Z,18.80
2018-12-14T03:25:15.897Z,18.43
2018-12-14T03:27:49.873Z,18.93
2018-12-14T03:30:23.919Z,17.60
2018-12-14T03:32:58.032Z,18.17
2018-12-14T03:35:31.865Z,19.30
2018-12-14T03:38:05.849Z,16.73
2018-12-14T03:40:39.853Z,21.23
2018-12-14T03:43:13.964Z,18.50
2018-12-14T03:45:47.875Z,21.90
2018-12-14T03:48:21.735Z,19.57
2018-12-14T03:50:55.890Z,22.23
2018-12-14T03:53:29.697Z,22.67
2018-12-14T03:56:03.603Z,23.30
2018-12-14T03:58:37.304Z,31.00
2018-12-14T04:01:11.417Z,23.30
2018-12-14T04:03:45.324Z,27.00
2018-12-14T04:06:19.335Z,27.40
2018-12-14T04:08:53.145Z,27.57
2018-12-14T04:11:27.149Z,25.77
2018-12-14T04:14:00.796Z,25.93
2018-12-14T04:16:34.724Z,25.57
2018-12-14T04:19:08.720Z,25.63
2018-12-14T04:21:42.776Z,23.13
2018-12-14T04:24:16.388Z,20.97
2018-12-14T04:26:50.285Z,19.20
2018-12-14T04:29:24.384Z,19.40
2018-12-14T04:31:58.303Z,20.43
2018-12-14T04:34:32.198Z,18.43
2018-12-14T04:37:06.222Z,18.40
2018-12-14T04:39:40.232Z,19.97
2018-12-14T04:42:14.137Z,20.47
2018-12-14T04:44:48.053Z,21.23
2018-12-14T04:47:22.160Z,22.07
2018-12-14T04:49:56.086Z,20.73
2018-12-14T04:52:29.964Z,23.13
2018-12-14T04:55:05.721Z,23.43
2018-12-14T04:57:39.596Z,21.90
2018-12-14T05:00:13.405Z,23.50
2018-12-14T05:02:47.104Z,23.33
2018-12-14T05:05:21.102Z,21.17
2018-12-14T05:07:55.154Z,19.70
2018-12-14T05:10:28.960Z,21.60
2018-12-14T05:13:02.633Z,20.20
2018-12-14T05:15:36.486Z,19.33
2018-12-14T05:18:10.477Z,18.90
2018-12-14T05:20:44.280Z,20.97
2018-12-14T05:23:18.289Z,20.37
2018-12-14T05:25:53.732Z,19.57
2018-12-14T05:28:27.509Z,19.47
2018-12-14T05:31:01.596Z,21.57
2018-12-14T05:33:35.659Z,20.47
2018-12-14T05:36:09.672Z,21.83
2018-12-14T05:38:43.473Z,20.13
2018-12-14T05:41:17.380Z,19.53
2018-12-14T05:43:51.290Z,21.13
2018-12-14T05:46:25.194Z,22.27
2018-12-14T05:48:58.873Z,22.03
2018-12-14T05:51:32.907Z,21.53
2018-12-14T05:54:06.549Z,24.00
2018-12-14T05:56:40.368Z,21.40
2018-12-14T05:59:14.386Z,21.80
2018-12-14T06:01:48.637Z,23.27
2018-12-14T06:04:22.545Z,21.70
2018-12-14T06:06:56.352Z,23.13
2018-12-14T06:09:30.363Z,23.30
2018-12-14T06:12:04.689Z,21.67
2018-12-14T06:14:38.584Z,21.33
2018-12-14T06:17:12.456Z,17.87
2018-12-14T06:19:46.604Z,21.50
2018-12-14T06:22:21.636Z,22.07
2018-12-14T06:24:55.873Z,21.07
2018-12-14T06:27:29.864Z,24.00
2018-12-14T06:30:06.233Z,23.37
2018-12-14T06:32:40.147Z,21.67
2018-12-14T06:35:14.140Z,24.10
2018-12-14T06:37:48.058Z,25.80
2018-12-14T06:40:22.071Z,24.47
2018-12-14T06:42:56.071Z,25.65
2018-12-14T06:45:30.042Z,23.13
2018-12-14T06:48:03.987Z,21.50
2018-12-14T06:50:37.993Z,22.37
2018-12-14T06:53:12.145Z,23.63
2018-12-14T06:55:45.964Z,24.00
2018-12-14T06:58:19.817Z,22.13
2018-12-14T07:00:53.801Z,24.33
2018-12-14T07:03:27.734Z,24.80
2018-12-14T07:06:01.744Z,26.07
2018-12-14T07:08:35.856Z,26.10
2018-12-14T07:11:09.816Z,26.40
2018-12-14T07:13:43.733Z,24.53
2018-12-14T07:16:19.628Z,27.67
2018-12-14T07:18:53.642Z,27.10
2018-12-14T07:21:27.541Z,23.53
2018-12-14T07:24:01.801Z,23.13
2018-12-14T07:26:36.284Z,23.50
2018-12-14T07:29:10.165Z,23.83
2018-12-14T07:31:44.193Z,25.30
2018-12-14T07:34:18.046Z,24.60
2018-12-14T07:36:52.111Z,22.80
2018-12-14T07:39:25.979Z,21.87
2018-12-14T07:42:00.097Z,25.30
2018-12-14T07:44:34.169Z,20.63
2018-12-14T07:47:11.696Z,19.90
2018-12-14T07:49:44.309Z,21.73
2018-12-14T07:52:18.217Z,19.03
2018-12-14T07:54:52.126Z,21.07
2018-12-14T07:57:26.031Z,18.43
2018-12-14T07:59:59.733Z,17.10
2018-12-14T08:02:33.641Z,20.03
2018-12-14T08:05:07.459Z,17.47
2018-12-14T08:07:41.243Z,19.53
2018-12-14T08:10:15.260Z,18.60
2018-12-14T08:12:49.475Z,21.40
2018-12-14T08:15:23.426Z,18.77
2018-12-14T08:17:57.494Z,20.13
2018-12-14T08:20:31.606Z,20.90
2018-12-14T08:23:05.614Z,20.07
2018-12-14T08:25:39.363Z,18.60
2018-12-14T08:28:13.406Z,19.70
2018-12-14T08:30:47.697Z,19.83
2018-12-14T08:33:21.755Z,20.10
2018-12-14T08:35:55.560Z,21.97
2018-12-14T08:38:29.367Z,20.63
2018-12-14T08:41:03.076Z,18.03
2018-12-14T08:43:41.434Z,18.50
2018-12-14T08:46:12.827Z,18.10
2018-12-14T08:48:46.734Z,17.53
2018-12-14T08:51:20.539Z,16.90
2018-12-14T08:53:54.217Z,17.60
2018-12-14T08:56:28.046Z,17.43
2018-12-14T08:59:01.754Z,17.30
2018-12-14T09:01:35.554Z,16.27
2018-12-14T09:04:09.213Z,16.50
2018-12-14T09:06:43.041Z,14.70
2018-12-14T09:09:16.866Z,15.67
2018-12-14T09:11:50.875Z,15.47
2018-12-14T09:14:24.784Z,13.87
2018-12-14T09:16:58.796Z,15.57
2018-12-14T09:19:32.699Z,15.87
2018-12-14T09:22:06.506Z,16.57
2018-12-14T09:24:40.157Z,15.37
2018-12-14T09:27:14.115Z,18.23
2018-12-14T09:29:47.918Z,15.40
2018-12-14T09:32:21.872Z,16.77
2018-12-14T09:34:56.040Z,18.53
2018-12-14T09:37:29.865Z,18.30
2018-12-14T09:40:04.687Z,17.07
2018-12-14T09:42:38.579Z,17.67
2018-12-14T09:45:12.691Z,15.70
2018-12-14T09:47:46.602Z,18.17
2018-12-14T09:50:20.916Z,15.77
2018-12-14T09:52:55.132Z,16.33
2018-12-14T09:55:29.038Z,13.83
2018-12-14T09:58:03.047Z,14.07
2018-12-14T10:00:36.852Z,15.87
2018-12-14T10:03:10.759Z,12.90
2018-12-14T10:05:44.732Z,14.03
2018-12-14T10:08:18.680Z,13.10
2018-12-14T10:10:52.643Z,13.77
2018-12-14T10:13:26.877Z,13.93
2018-12-14T10:16:01.113Z,14.20
2018-12-14T10:18:34.968Z,13.63
2018-12-14T10:21:09.134Z,14.10
2018-12-14T10:23:43.040Z,13.07
2018-12-14T10:26:17.052Z,12.80
2018-12-14T10:28:51.059Z,13.57
2018-12-14T10:31:25.070Z,12.77
2018-12-14T10:33:58.874Z,12.33
2018-12-14T10:36:32.894Z,13.00
2018-12-14T10:39:07.101Z,12.80
2018-12-14T10:41:41.209Z,13.03
2018-12-14T10:44:15.116Z,11.63
2018-12-14T10:46:49.228Z,13.10
2018-12-14T10:49:22.975Z,12.07
2018-12-14T10:51:57.043Z,11.60
2018-12-14T10:54:30.903Z,12.23
2018-12-14T10:57:04.653Z,13.03
2018-12-14T10:59:38.665Z,11.97
2018-12-14T11:02:12.634Z,13.53
2018-12-14T11:04:46.580Z,14.10
2018-12-14T11:07:20.485Z,13.70
2018-12-14T11:09:54.292Z,13.50
2018-12-14T11:12:28.402Z,13.00
2018-12-14T11:15:02.206Z,12.30
2018-12-14T11:17:36.117Z,11.83
2018-12-14T11:20:10.333Z,12.10
2018-12-14T11:22:44.338Z,10.77
2018-12-14T11:25:18.449Z,11.33
2018-12-14T11:27:52.364Z,11.13
2018-12-14T11:30:26.367Z,11.27
2018-12-14T11:33:01.092Z,9.50
2018-12-14T11:35:35.102Z,12.23
2018-12-14T11:38:08.909Z,11.77
2018-12-14T11:40:42.921Z,12.47
2018-12-14T11:43:16.725Z,11.77
2018-12-14T11:45:50.615Z,10.93
2018-12-14T11:48:24.337Z,10.07
2018-12-14T11:50:58.143Z,11.37
2018-12-14T11:53:32.146Z,12.80
2018-12-14T11:56:06.053Z,10.50
2018-12-14T11:58:40.164Z,12.23
2018-12-14T12:01:14.071Z,12.70
2018-12-14T12:03:47.739Z,13.37
2018-12-14T12:06:21.681Z,13.00
2018-12-14T12:08:55.587Z,13.80
2018-12-14T12:11:29.294Z,11.77
2018-12-14T12:14:03.097Z,11.87
2018-12-14T12:16:37.207Z,13.00
2018-12-14T12:19:11.326Z,13.83
2018-12-14T12:21:45.534Z,13.20
2018-12-14T12:24:19.440Z,12.90
2018-12-14T12:26:53.552Z,13.53
2018-12-14T12:29:27.563Z,13.37
2018-12-14T12:32:01.674Z,12.73
2018-12-14T12:34:35.683Z,12.33
2018-12-14T12:37:09.457Z,12.53
2018-12-14T12:39:43.485Z,11.87
2018-12-14T12:42:17.507Z,12.10
2018-12-14T12:44:51.416Z,11.07
2018-12-14T12:47:25.321Z,11.20
2018-12-14T12:49:59.438Z,9.17
2018-12-14T12:52:33.380Z,9.97
2018-12-14T12:55:07.192Z,9.67
2018-12-14T12:57:41.295Z,9.17
2018-12-14T13:00:15.322Z,10.07
2018-12-14T13:02:49.380Z,9.70
2018-12-14T13:05:23.388Z,9.37
2018-12-14T13:07:57.298Z,9.43
2018-12-14T13:10:31.305Z,9.13
2018-12-14T13:13:05.212Z,10.10
2018-12-14T13:15:39.222Z,8.97
2018-12-14T13:18:12.923Z,8.60
2018-12-14T13:20:46.899Z,9.33
2018-12-14T13:23:21.057Z,8.73
2018-12-14T13:25:55.044Z,9.33
2018-12-14T13:28:29.375Z,8.93
2018-12-14T13:31:03.181Z,10.20
2018-12-14T13:33:37.186Z,9.27
2018-12-14T13:36:11.298Z,9.17
2018-12-14T13:38:45.207Z,10.23
2018-12-14T13:41:19.234Z,9.93
2018-12-14T13:43:53.244Z,9.87
2018-12-14T13:46:27.233Z,10.27
2018-12-14T13:49:02.882Z,12.13
2018-12-14T13:51:37.163Z,10.33
2018-12-14T13:54:11.112Z,10.20
2018-12-14T13:56:45.217Z,10.23
2018-12-14T13:59:18.929Z,10.70
2018-12-14T14:01:52.929Z,11.03
2018-12-14T14:04:26.899Z,10.27
2018-12-14T14:07:00.951Z,11.23
2018-12-14T14:09:34.957Z,10.47
2018-12-14T14:12:08.763Z,11.50
2018-12-14T14:14:42.772Z,11.70
2018-12-14T14:17:16.680Z,10.07
2018-12-14T14:19:50.658Z,10.37
2018-12-14T14:22:25.007Z,10.77
2018-12-14T14:24:58.815Z,12.17
2018-12-14T14:27:32.718Z,10.27
2018-12-14T14:30:08.047Z,11.20
2018-12-14T14:32:41.976Z,11.90
2018-12-14T14:35:15.931Z,11.73
2018-12-14T14:37:49.985Z,12.77
2018-12-14T14:40:23.790Z,13.13
2018-12-14T14:42:57.604Z,11.17
2018-12-14T14:45:31.402Z,12.60
2018-12-14T14:48:05.512Z,13.73
2018-12-14T14:50:40.237Z,12.83
2018-12-14T14:53:14.249Z,14.43
2018-12-14T14:55:48.256Z,13.97
2018-12-14T14:58:22.179Z,13.33
2018-12-14T15:00:56.053Z,14.27
2018-12-14T15:03:30.188Z,14.07
2018-12-14T15:06:04.037Z,13.17
2018-12-14T15:08:38.100Z,15.00
2018-12-14T15:11:11.871Z,14.10
2018-12-14T15:13:45.915Z,13.73
2018-12-14T15:16:19.927Z,13.13
2018-12-14T15:18:53.831Z,13.40
2018-12-14T15:21:27.515Z,15.17
2018-12-14T15:24:01.647Z,13.30
2018-12-14T15:26:35.452Z,12.43
2018-12-14T15:29:09.363Z,13.83
2018-12-14T15:31:44.188Z,14.27
2018-12-14T15:34:18.102Z,13.23
2018-12-14T15:36:52.069Z,12.53
2018-12-14T15:39:26.117Z,11.60
2018-12-14T15:42:00.202Z,11.37
2018-12-14T15:44:35.259Z,11.90
2018-12-14T15:47:09.167Z,13.37
2018-12-14T15:49:42.907Z,12.67
2018-12-14T15:52:16.979Z,12.47
2018-12-14T15:54:50.889Z,11.53
2018-12-14T15:57:25.108Z,12.57
2018-12-14T15:59:59.931Z,12.87
2018-12-14T16:02:34.143Z,11.97
2018-12-14T16:05:08.358Z,12.77
2018-12-14T16:07:42.299Z,11.90
2018-12-14T16:10:16.278Z,12.80
2018-12-14T16:12:50.182Z,12.47
2018-12-14T16:15:23.988Z,13.13
2018-12-14T16:17:58.025Z,13.67
2018-12-14T16:20:31.802Z,12.67
2018-12-14T16:23:06.904Z,13.17
2018-12-14T16:25:40.820Z,12.83
2018-12-14T16:28:14.726Z,14.30
2018-12-14T16:30:48.532Z,12.73
2018-12-14T16:33:22.333Z,12.00
2018-12-14T16:35:56.196Z,14.83
2018-12-14T16:38:30.074Z,14.50
2018-12-14T16:41:03.834Z,15.67
2018-12-14T16:43:37.864Z,13.37
2018-12-14T16:46:11.797Z,15.47
2018-12-14T16:48:45.750Z,15.20
2018-12-14T16:51:19.814Z,16.40
2018-12-14T16:54:05.149Z,14.67
2018-12-14T16:56:38.951Z,15.33
2018-12-14T16:59:13.004Z,12.53
2018-12-14T17:01:46.911Z,12.60
2018-12-14T17:04:20.833Z,15.97
2018-12-14T17:06:54.930Z,12.90
2018-12-14T17:09:28.837Z,13.23
2018-12-14T17:12:02.848Z,13.93
2018-12-14T17:14:36.857Z,15.60
2018-12-14T17:17:10.765Z,13.83
2018-12-14T17:19:44.476Z,15.57
2018-12-14T17:22:18.170Z,13.47
2018-12-14T17:24:51.988Z,16.33
2018-12-14T17:27:26.187Z,16.93
2018-12-14T17:29:59.948Z,17.60
2018-12-14T17:32:34.004Z,17.40
2018-12-14T17:35:07.913Z,18.37
2018-12-14T17:37:42.021Z,17.83
2018-12-14T17:40:15.791Z,15.93
2018-12-14T17:42:49.837Z,18.43
2018-12-14T17:45:23.743Z,18.00
2018-12-14T17:47:57.558Z,17.03
2018-12-14T17:50:31.558Z,17.07
2018-12-14T17:53:05.465Z,15.67
2018-12-14T17:55:39.278Z,17.80
2018-12-14T17:58:13.408Z,16.13
2018-12-14T18:00:48.660Z,15.47
2018-12-14T18:03:22.732Z,14.33
2018-12-14T18:05:56.741Z,16.27
2018-12-14T18:08:31.673Z,15.90
2018-12-14T18:11:05.573Z,15.10
2018-12-14T18:13:39.589Z,15.20
2018-12-14T18:16:13.556Z,14.93
2018-12-14T18:18:47.816Z,15.43
2018-12-14T18:21:21.729Z,16.43
2018-12-14T18:23:55.732Z,14.80
2018-12-14T18:26:29.558Z,16.40
2018-12-14T18:29:03.647Z,14.47
2018-12-14T18:31:37.510Z,14.97
2018-12-14T18:34:11.570Z,16.63
2018-12-14T18:36:45.880Z,17.37
2018-12-14T18:39:19.889Z,16.30
2018-12-14T18:41:53.717Z,15.50
2018-12-14T18:44:27.795Z,17.37
2018-12-14T18:47:01.823Z,15.47
2018-12-14T18:49:35.879Z,15.07
2018-12-14T18:52:10.040Z,15.53
2018-12-14T18:54:44.050Z,17.53
2018-12-14T18:57:17.841Z,15.33
2018-12-14T18:59:51.969Z,16.23
2018-12-14T19:02:25.872Z,16.10
2018-12-14T19:04:59.780Z,16.07
2018-12-14T19:07:33.893Z,15.50
2018-12-14T19:10:07.802Z,16.37
2018-12-14T19:12:41.860Z,17.17
2018-12-14T19:15:16.101Z,15.33
2018-12-14T19:17:49.994Z,16.87
2018-12-14T19:20:24.011Z,18.27
2018-12-14T19:22:58.052Z,19.20
2018-12-14T19:25:32.066Z,18.73
2018-12-14T19:28:05.968Z,17.17
2018-12-14T19:30:40.081Z,20.87
2018-12-14T19:33:13.879Z,15.77
2018-12-14T19:35:47.800Z,18.27
2018-12-14T19:38:21.700Z,18.10
2018-12-14T19:40:55.710Z,19.33
2018-12-14T19:43:29.416Z,17.17
2018-12-14T19:46:06.269Z,17.93
2018-12-14T19:48:39.277Z,20.23
2018-12-14T19:51:13.386Z,18.30
2018-12-14T19:53:47.396Z,19.00
2018-12-14T19:56:21.917Z,19.37
2018-12-14T19:58:55.728Z,18.17
2018-12-14T20:01:29.837Z,18.80
2018-12-14T20:04:03.945Z,18.33
2018-12-14T20:06:37.821Z,20.40
2018-12-14T20:09:12.376Z,19.27
2018-12-14T20:11:46.179Z,19.00
2018-12-14T20:14:20.087Z,17.37
2018-12-14T20:16:54.090Z,18.00
2018-12-14T20:19:28.110Z,19.57
2018-12-14T20:22:02.118Z,19.33
2018-12-14T20:24:36.120Z,19.50
2018-12-14T20:27:10.237Z,19.63
2018-12-14T20:29:44.145Z,20.70
2018-12-14T20:32:18.262Z,19.03
2018-12-14T20:34:52.367Z,18.47
2018-12-14T20:37:26.376Z,20.00
2018-12-14T20:40:00.065Z,17.87
2018-12-14T20:42:34.091Z,20.27
2018-12-14T20:45:08.201Z,19.37
2018-12-14T20:47:42.312Z,19.70
2018-12-14T20:50:16.220Z,19.63
2018-12-14T20:52:50.132Z,21.67
2018-12-14T20:55:23.940Z,20.43
2018-12-14T20:57:58.043Z,21.97
2018-12-14T21:00:32.055Z,20.60
2018-12-14T21:03:05.861Z,19.67
2018-12-14T21:05:39.767Z,21.33
2018-12-14T21:08:13.987Z,21.27
2018-12-14T21:10:48.091Z,20.13
2018-12-14T21:13:21.998Z,20.97
2018-12-14T21:15:56.113Z,23.73
2018-12-14T21:18:30.021Z,19.90
2018-12-14T21:21:04.130Z,23.17
2018-12-14T21:23:38.038Z,21.10
2018-12-14T21:26:11.768Z,22.00
2018-12-14T21:28:45.697Z,21.80
2018-12-14T21:31:19.861Z,23.97
2018-12-14T21:33:53.768Z,21.57
2018-12-14T21:36:27.677Z,21.47
2018-12-14T21:39:01.441Z,23.43
2018-12-14T21:41:37.008Z,25.27
2018-12-14T21:44:10.834Z,19.83
2018-12-14T21:46:44.917Z,22.07
2018-12-14T21:49:19.054Z,22.87
2018-12-14T21:51:52.865Z,25.60
2018-12-14T21:54:26.824Z,23.53
2018-12-14T21:57:00.879Z,25.00
2018-12-14T21:59:34.990Z,24.80
2018-12-14T22:02:08.796Z,24.90
2018-12-14T22:04:42.565Z,25.47
2018-12-14T22:07:16.711Z,26.77
2018-12-14T22:09:50.698Z,25.53
2018-12-14T22:12:24.731Z,26.80
2018-12-14T22:14:58.850Z,25.83
2018-12-14T22:17:33.262Z,25.03
2018-12-14T22:20:07.324Z,27.23
2018-12-14T22:22:41.179Z,25.13
2018-12-14T22:25:15.085Z,27.60
2018-12-14T22:27:48.970Z,24.43
2018-12-14T22:30:23.002Z,24.27
2018-12-14T22:32:56.807Z,26.23
2018-12-14T22:35:31.021Z,24.63
2018-12-14T22:38:05.031Z,27.07
2018-12-14T22:40:39.246Z,26.10
2018-12-14T22:43:13.153Z,26.57
2018-12-14T22:45:47.884Z,26.67
2018-12-14T22:48:21.888Z,25.20
2018-12-14T22:50:55.805Z,25.43
2018-12-14T22:53:29.703Z,23.50
2018-12-14T22:56:03.509Z,21.60
2018-12-14T22:58:37.418Z,20.80
2018-12-14T23:01:11.731Z,20.03
2018-12-14T23:03:45.352Z,22.60
2018-12-14T23:06:19.037Z,24.10
2018-12-14T23:08:52.895Z,24.50
2018-12-14T23:11:26.952Z,25.30
2018-12-14T23:14:00.617Z,22.60
2018-12-14T23:16:34.664Z,20.40
2018-12-14T23:19:08.574Z,19.93
2018-12-14T23:21:42.478Z,21.90
2018-12-14T23:24:16.589Z,21.40
2018-12-14T23:26:50.704Z,20.80
2018-12-14T23:29:24.610Z,23.30
2018-12-14T23:31:58.515Z,21.70
2018-12-14T23:34:32.423Z,21.70
2018-12-14T23:37:06.432Z,23.87
2018-12-14T23:39:40.116Z,24.67
2018-12-14T23:42:14.247Z,20.07
2018-12-14T23:44:48.157Z,19.27
2018-12-14T23:47:22.265Z,19.13
2018-12-14T23:49:56.276Z,19.43
2018-12-14T23:52:30.309Z,20.23
2018-12-14T23:55:04.396Z,18.67
2018-12-14T23:57:38.200Z,21.17
